Flight Track Log - Related Links

Times and Time Zones

All times are in EDT time to prevent confusion due to time zone crossing. See the SWA2166 flight status page for this flight to view local times or setup timezone preferences in your user account.

Time Position Orientation Groundspeed Altitude Reporting Facility
EDT Latitude Longitude Course Direction KTS MPH feet Rate Location/Type
Mon 07:56:04 AM 29.9761 -90.2564 195° South 153 176 1,100  Level Houston Center
Mon 07:57:00 AM 29.9447 -90.2658 195° South 160 184 2,500 2,205 Climbing Houston Center
Mon 07:58:01 AM 29.8928 -90.2850 198° South 186 214 5,400 2,902 Climbing Houston Center
Mon 07:59:02 AM 29.9369 -90.3511 308° West 255 293 8,400 2,780 Climbing Houston Center
Mon 08:00:04 AM 30.0178 -90.3794 343° North 291 335 11,100 2,927 Climbing Houston Center
Mon 08:01:05 AM 30.1081 -90.4119 343° North 326 375 14,400 3,295 Climbing Houston Center
Mon 08:02:06 AM 30.2050 -90.4453 343° North 354 407 17,800 2,902 Climbing Houston Center
Mon 08:03:07 AM 30.3058 -90.4767 345° North 368 423 20,300 2,361 Climbing Houston Center
Mon 08:04:08 AM 30.4183 -90.4864 356° North 407 468 22,600 2,244 Climbing Houston Center
Mon 08:05:10 AM 30.5372 -90.4783 North 422 486 24,900 2,146 Climbing Houston Center
Mon 08:06:11 AM 30.6583 -90.4708 North 432 497 27,000 1,918 Climbing Houston Center
Mon 08:07:12 AM 30.7828 -90.4633 North 442 509 28,800 1,721 Climbing Houston Center
Mon 08:08:13 AM 30.9114 -90.4544 North 455 524 30,500 1,756 Climbing Houston Center
Mon 08:09:15 AM 31.0406 -90.4461 North 462 532 32,400 1,854 Climbing Houston Center
Mon 08:10:16 AM 31.1694 -90.4378 North 463 533 34,300 1,918 Climbing Houston Center
Mon 08:11:17 AM 31.2939 -90.4286 North 451 519 36,300 1,574 Climbing Houston Center
Mon 08:12:18 AM 31.4417 -90.4194 North 444 511 37,500 1,122 Climbing Houston Center
Mon 08:13:20 AM 31.5656 -90.4103 North 445 512 38,600 732 Climbing Houston Center
Mon 08:14:21 AM 31.6892 -90.4019 North 445 512 39,000 197 Climbing Houston Center
Mon 08:15:22 AM 31.8119 -90.3953 North 443 510 39,000  Level Houston Center
Mon 08:16:08 AM 31.9142 -90.3867 North 440 506 39,000  Level Memphis Center
Mon 08:17:09 AM 32.0353 -90.3794 North 440 506 39,000  Level Memphis Center
Mon 08:18:08 AM 32.1583 -90.3672 North 440 506 39,000  Level Memphis Center
Mon 08:19:08 AM 32.2794 -90.3597 North 440 506 39,000  Level Memphis Center
Mon 08:20:08 AM 32.3983 -90.3525 North 440 506 39,000  Level Memphis Center
Mon 08:21:08 AM 32.5194 -90.3450 North 440 506 39,000  Level Memphis Center
Mon 08:22:08 AM 32.6406 -90.3375 North 440 506 39,000  Level Memphis Center
Mon 08:23:08 AM 32.7597 -90.3275 North 435 501 39,000  Level Memphis Center
Mon 08:24:08 AM 32.8786 -90.3053 North 435 501 39,000  Level Memphis Center
Mon 08:25:08 AM 32.9997 -90.2831 North 435 501 39,000  Level Memphis Center
Mon 08:26:08 AM 33.1208 -90.2581 10° North 435 501 39,000  Level Memphis Center
Mon 08:27:08 AM 33.2397 -90.2356 North 435 501 39,000  Level Memphis Center
Mon 08:28:08 AM 33.3586 -90.2131 North 435 501 39,000  Level Memphis Center
Mon 08:29:08 AM 33.4797 -90.1878 10° North 435 501 39,000  Level Memphis Center
Mon 08:30:08 AM 33.5986 -90.1653 North 429 494 39,000  Level Memphis Center
Mon 08:31:08 AM 33.7175 -90.1425 North 429 494 39,000  Level Memphis Center
Mon 08:32:08 AM 33.8344 -90.1197 North 429 494 39,000  Level Memphis Center
Mon 08:33:08 AM 33.9533 -90.0967 North 429 494 39,000  Level Memphis Center
Mon 08:34:08 AM 34.0722 -90.0714 10° North 434 499 39,000  Level Memphis Center
Mon 08:35:08 AM 34.1953 -90.0458 10° North 434 499 39,000  Level Memphis Center
Mon 08:36:08 AM 34.3142 -90.0228 North 428 493 39,000  Level Memphis Center
Mon 08:37:08 AM 34.4331 -90.0019 North 428 493 39,000  Level Memphis Center
Mon 08:38:08 AM 34.5561 -89.9764 10° North 428 493 39,000  Level Memphis Center
Mon 08:39:08 AM 34.6750 -89.9531 North 428 493 39,000  Level Memphis Center
Mon 08:40:08 AM 34.7833 -89.9347 North 428 493 39,000  Level Memphis Center
Mon 08:41:08 AM 34.9064 -89.9064 11° North 445 512 39,000  Level Memphis Center
Mon 08:42:08 AM 35.0419 -89.8903 North 450 518 39,000  Level Memphis Center
Mon 08:43:08 AM 35.1628 -89.8847 North 432 497 39,000  Level Memphis Center
Mon 08:44:08 AM 35.2817 -89.8789 North 427 491 39,000  Level Memphis Center
Mon 08:45:08 AM 35.4006 -89.8756 North 419 482 39,000  Level Memphis Center
Mon 08:46:08 AM 35.5217 -89.8697 North 424 488 39,000  Level Memphis Center
Mon 08:47:08 AM 35.6383 -89.8642 North 418 481 39,000  Level Memphis Center
Mon 08:48:08 AM 35.7489 -89.8608 North 413 475 39,000  Level Memphis Center
Mon 08:49:08 AM 35.8553 -89.8603 360° North 413 475 39,000  Level Memphis Center
Mon 08:50:08 AM 35.9742 -89.8542 North 420 483 39,000  Level Memphis Center
Mon 08:51:08 AM 36.0950 -89.8483 North 425 489 39,000  Level Memphis Center
Mon 08:52:08 AM 36.2139 -89.8425 North 425 489 39,000  Level Memphis Center
Mon 08:53:08 AM 36.3347 -89.8417 360° North 425 489 39,000  Level Memphis Center
Mon 08:54:08 AM 36.4536 -89.8358 North 420 483 39,000  Level Memphis Center
Mon 08:55:08 AM 36.5722 -89.8297 North 420 483 39,000  Level Memphis Center
Mon 08:56:08 AM 36.6889 -89.8264 North 420 483 39,000  Level Memphis Center
Mon 08:58:04 AM 36.9267 -89.8094 North 423 487 39,000  Level Kansas City Center
Mon 08:59:08 AM 37.0453 -89.8044 North 424 488 39,000  Level Kansas City Center
Mon 09:00:08 AM 37.1636 -89.7992 North 424 488 39,000  Level Kansas City Center
Mon 09:01:12 AM 37.2833 -89.7939 North 427 491 39,000  Level Kansas City Center
Mon 09:02:14 AM 37.4042 -89.7897 North 430 495 39,000  Level Kansas City Center
Mon 09:03:15 AM 37.5244 -89.7833 North 432 497 39,000  Level Kansas City Center
Mon 09:04:16 AM 37.6542 -89.7786 North 434 499 39,000  Level Kansas City Center
Mon 09:05:18 AM 37.7747 -89.7739 North 434 499 39,000  Level Kansas City Center
Mon 09:06:19 AM 37.8961 -89.7669 North 436 502 39,000  Level Kansas City Center
Mon 09:07:19 AM 38.0156 -89.7611 North 433 498 39,000  Level Kansas City Center
Mon 09:08:23 AM 38.1592 -89.7556 North 432 497 39,000  Level Kansas City Center
Mon 09:09:22 AM 38.2789 -89.7503 North 432 497 39,000  Level Kansas City Center
Mon 09:10:24 AM 38.3978 -89.7439 North 432 497 39,000  Level Kansas City Center
Mon 09:11:27 AM 38.5194 -89.7386 North 437 503 39,000 -145 Level Kansas City Center
Mon 09:12:28 AM 38.6394 -89.7333 North 435 501 38,700 -639 Descending Kansas City Center
Mon 09:13:29 AM 38.7597 -89.7267 North 436 502 37,700 -934 Descending Kansas City Center
Mon 09:14:30 AM 38.8786 -89.7206 North 433 498 36,800 -1,041 Descending Kansas City Center
Mon 09:15:30 AM 39.0239 -89.7142 North 437 503 35,600 -1,033 Descending Kansas City Center
Mon 09:16:32 AM 39.1478 -89.7089 North 445 512 34,700 -912 Descending Kansas City Center
Mon 09:17:35 AM 39.2711 -89.7033 North 446 513 33,700 -1,008 Descending Kansas City Center
Mon 09:18:37 AM 39.3939 -89.6983 North 444 511 32,600 -976 Descending Kansas City Center
Mon 09:19:38 AM 39.5147 -89.6914 North 439 505 31,700 -893 Descending Kansas City Center
Mon 09:20:38 AM 39.6425 -89.6853 North 454 522 30,800 -976 Descending Kansas City Center
Mon 09:21:41 AM 39.7853 -89.6786 North 459 528 29,700 -864 Descending Kansas City Center
Mon 09:22:43 AM 39.9044 -89.6172 22° Northeast 471 542 29,000 -442 Descending Kansas City Center
Mon 09:23:16 AM 39.9686 -89.5567 36° Northeast 484 557 29,000 -632 Level Chicago Center
Mon 09:24:18 AM 40.0764 -89.4525 36° Northeast 486 559 28,000 -976 Descending Chicago Center
Mon 09:25:19 AM 40.1836 -89.3494 36° Northeast 483 556 27,000 -1,122 Descending Chicago Center
Mon 09:26:21 AM 40.2903 -89.2472 36° Northeast 481 554 25,700 -1,935 Descending Chicago Center
Mon 09:27:23 AM 40.4150 -89.1281 36° Northeast 466 536 23,000 -2,032 Descending Chicago Center
Mon 09:28:25 AM 40.5139 -89.0322 36° Northeast 450 518 21,500 -1,220 Descending Chicago Center
Mon 09:29:26 AM 40.6086 -88.9406 36° Northeast 429 494 20,500 -976 Descending Chicago Center
Mon 09:30:28 AM 40.7100 -88.8414 37° Northeast 423 487 19,500 -1,452 Descending Chicago Center
Mon 09:31:30 AM 40.8078 -88.7700 29° Northeast 402 463 17,500 -1,645 Descending Chicago Center
Mon 09:32:32 AM 40.9036 -88.7117 25° Northeast 382 440 16,100 -1,984 Descending Chicago Center
Mon 09:33:34 AM 40.9947 -88.6578 24° Northeast 364 419 13,400 -2,341 Descending Chicago Center
Mon 09:34:35 AM 41.0853 -88.5994 26° Northeast 363 418 11,300 -1,805 Descending Chicago Center
Mon 09:35:37 AM 41.1725 -88.5475 24° Northeast 352 405 9,700 -1,548 Descending Chicago Center
Mon 09:36:39 AM 41.2739 -88.4858 25° Northeast 337 388 8,100 -1,452 Descending Chicago Center
Mon 09:37:41 AM 41.3531 -88.4369 25° Northeast 319 367 6,700 -1,016 Descending Chicago Center
Mon 09:38:43 AM 41.4133 -88.3511 47° Northeast 323 372 6,000 -339 Descending Chicago Center
Mon 09:39:45 AM 41.4667 -88.2550 53° Northeast 322 371 6,000 -435 Level Chicago Center
Mon 09:40:47 AM 41.5150 -88.1683 53° Northeast 294 338 5,100 -927 Descending Chicago Center
Mon 09:41:48 AM 41.5622 -88.0828 54° Northeast 285 328 4,100 -537 Descending Chicago Center
Mon 09:42:50 AM 41.6081 -88.0000 53° Northeast 280 322 4,000 -48 Descending Chicago Center
Mon 09:43:52 AM 41.6519 -87.9208 53° Northeast 272 313 4,000 -743 Level Chicago Center
Mon 09:44:35 AM 41.7000 -87.8500 48° Northeast 281 323 2,700 -1,282 Descending Chicago TRACON
Mon 09:45:35 AM 41.7500 -87.8000 37° Northeast 249 287 1,800 -650 Descending Chicago TRACON
Mon 09:46:35 AM 41.8000 -87.8333 334° Northwest 159 183 1,400 -200 Descending Chicago TRACON
Mon 09:47:35 AM 41.8167 -87.8000 56° Northeast 141 162 1,400  Level Chicago TRACON

Login

Don't have an account? Register now (free) for customized features, flight alerts, and more!